sensor_id;sensor_type;location;lat;lon;timestamp;temperature;humidity
14585;DHT22;7379;51.506;11.876;2024-01-30T00:02:16;5.50;80.50
14585;DHT22;7379;51.506;11.876;2024-01-30T00:04:44;5.50;80.50
14585;DHT22;7379;51.506;11.876;2024-01-30T00:07:10;5.50;80.50
14585;DHT22;7379;51.506;11.876;2024-01-30T00:09:38;5.50;80.50
14585;DHT22;7379;51.506;11.876;2024-01-30T00:12:06;5.50;80.50
14585;DHT22;7379;51.506;11.876;2024-01-30T00:14:32;5.40;80.40
14585;DHT22;7379;51.506;11.876;2024-01-30T00:16:59;5.50;80.50
14585;DHT22;7379;51.506;11.876;2024-01-30T00:19:26;5.50;80.60
14585;DHT22;7379;51.506;11.876;2024-01-30T00:21:54;5.40;80.50
14585;DHT22;7379;51.506;11.876;2024-01-30T00:24:21;5.40;80.50
14585;DHT22;7379;51.506;11.876;2024-01-30T00:26:47;5.50;80.60
14585;DHT22;7379;51.506;11.876;2024-01-30T00:29:14;5.50;80.60
14585;DHT22;7379;51.506;11.876;2024-01-30T00:31:44;5.40;80.50
14585;DHT22;7379;51.506;11.876;2024-01-30T00:34:11;5.40;80.50
14585;DHT22;7379;51.506;11.876;2024-01-30T00:36:38;5.50;80.60
14585;DHT22;7379;51.506;11.876;2024-01-30T00:39:06;5.50;80.70
14585;DHT22;7379;51.506;11.876;2024-01-30T00:41:34;5.40;80.60
14585;DHT22;7379;51.506;11.876;2024-01-30T00:44:01;5.40;80.60
14585;DHT22;7379;51.506;11.876;2024-01-30T00:46:28;5.40;80.60
14585;DHT22;7379;51.506;11.876;2024-01-30T00:48:54;5.40;80.60
14585;DHT22;7379;51.506;11.876;2024-01-30T00:51:21;5.40;80.60
14585;DHT22;7379;51.506;11.876;2024-01-30T00:53:48;5.40;80.60
14585;DHT22;7379;51.506;11.876;2024-01-30T00:56:16;5.40;80.60
14585;DHT22;7379;51.506;11.876;2024-01-30T00:58:43;5.40;80.70
14585;DHT22;7379;51.506;11.876;2024-01-30T01:01:10;5.40;80.70
14585;DHT22;7379;51.506;11.876;2024-01-30T01:03:37;5.40;80.70
14585;DHT22;7379;51.506;11.876;2024-01-30T01:06:06;5.40;80.70
14585;DHT22;7379;51.506;11.876;2024-01-30T01:08:33;5.40;80.70
14585;DHT22;7379;51.506;11.876;2024-01-30T01:10:59;5.40;80.70
14585;DHT22;7379;51.506;11.876;2024-01-30T01:13:27;5.40;80.70
14585;DHT22;7379;51.506;11.876;2024-01-30T01:15:54;5.40;80.70
14585;DHT22;7379;51.506;11.876;2024-01-30T01:18:21;5.40;80.70
14585;DHT22;7379;51.506;11.876;2024-01-30T01:20:47;5.40;80.70
14585;DHT22;7379;51.506;11.876;2024-01-30T01:23:14;5.40;80.70
14585;DHT22;7379;51.506;11.876;2024-01-30T01:25:41;5.40;80.70
14585;DHT22;7379;51.506;11.876;2024-01-30T01:28:08;5.40;80.70
14585;DHT22;7379;51.506;11.876;2024-01-30T01:30:36;5.40;80.80
14585;DHT22;7379;51.506;11.876;2024-01-30T01:33:03;5.40;80.80
14585;DHT22;7379;51.506;11.876;2024-01-30T01:35:29;5.40;80.80
14585;DHT22;7379;51.506;11.876;2024-01-30T01:37:56;5.40;80.70
14585;DHT22;7379;51.506;11.876;2024-01-30T01:40:25;5.40;80.80
14585;DHT22;7379;51.506;11.876;2024-01-30T01:42:52;5.40;80.80
14585;DHT22;7379;51.506;11.876;2024-01-30T01:45:20;5.40;80.80
14585;DHT22;7379;51.506;11.876;2024-01-30T01:47:50;5.40;80.80
14585;DHT22;7379;51.506;11.876;2024-01-30T01:50:18;5.40;80.80
14585;DHT22;7379;51.506;11.876;2024-01-30T01:52:47;5.40;80.80
14585;DHT22;7379;51.506;11.876;2024-01-30T01:55:14;5.40;80.80
14585;DHT22;7379;51.506;11.876;2024-01-30T01:57:43;5.40;80.80
14585;DHT22;7379;51.506;11.876;2024-01-30T02:00:10;5.30;80.70
14585;DHT22;7379;51.506;11.876;2024-01-30T02:02:39;5.30;80.70
14585;DHT22;7379;51.506;11.876;2024-01-30T02:05:08;5.40;80.80
14585;DHT22;7379;51.506;11.876;2024-01-30T02:07:35;5.40;81.60
14585;DHT22;7379;51.506;11.876;2024-01-30T02:10:08;5.30;80.70
14585;DHT22;7379;51.506;11.876;2024-01-30T02:12:35;5.40;80.80
14585;DHT22;7379;51.506;11.876;2024-01-30T02:15:02;5.30;80.70
14585;DHT22;7379;51.506;11.876;2024-01-30T02:17:30;5.30;80.80
14585;DHT22;7379;51.506;11.876;2024-01-30T02:19:57;5.30;80.80
14585;DHT22;7379;51.506;11.876;2024-01-30T02:22:25;5.30;80.80
14585;DHT22;7379;51.506;11.876;2024-01-30T02:24:51;5.30;80.80
14585;DHT22;7379;51.506;11.876;2024-01-30T02:27:18;5.30;80.70
14585;DHT22;7379;51.506;11.876;2024-01-30T02:29:45;5.30;80.80
14585;DHT22;7379;51.506;11.876;2024-01-30T02:32:12;5.30;80.80
14585;DHT22;7379;51.506;11.876;2024-01-30T02:34:39;5.30;80.80
14585;DHT22;7379;51.506;11.876;2024-01-30T02:37:05;5.30;80.80
14585;DHT22;7379;51.506;11.876;2024-01-30T02:39:33;5.30;80.80
14585;DHT22;7379;51.506;11.876;2024-01-30T02:42:00;5.30;80.80
14585;DHT22;7379;51.506;11.876;2024-01-30T02:44:27;5.30;80.80
14585;DHT22;7379;51.506;11.876;2024-01-30T02:46:54;5.30;80.80
14585;DHT22;7379;51.506;11.876;2024-01-30T02:49:20;5.30;80.90
14585;DHT22;7379;51.506;11.876;2024-01-30T02:51:47;5.30;80.80
14585;DHT22;7379;51.506;11.876;2024-01-30T02:54:14;5.30;80.80
14585;DHT22;7379;51.506;11.876;2024-01-30T02:56:42;5.30;80.80
14585;DHT22;7379;51.506;11.876;2024-01-30T02:59:08;5.30;80.90
14585;DHT22;7379;51.506;11.876;2024-01-30T03:01:42;5.30;80.90
14585;DHT22;7379;51.506;11.876;2024-01-30T03:04:09;5.30;80.90
14585;DHT22;7379;51.506;11.876;2024-01-30T03:06:36;5.30;80.90
14585;DHT22;7379;51.506;11.876;2024-01-30T03:09:02;5.30;80.90
14585;DHT22;7379;51.506;11.876;2024-01-30T03:11:30;5.30;80.90
14585;DHT22;7379;51.506;11.876;2024-01-30T03:13:58;5.30;80.90
14585;DHT22;7379;51.506;11.876;2024-01-30T03:16:25;5.30;81.00
14585;DHT22;7379;51.506;11.876;2024-01-30T03:18:51;5.30;80.90
14585;DHT22;7379;51.506;11.876;2024-01-30T03:21:18;5.30;81.00
14585;DHT22;7379;51.506;11.876;2024-01-30T03:23:45;5.30;81.00
14585;DHT22;7379;51.506;11.876;2024-01-30T03:26:11;5.20;80.90
14585;DHT22;7379;51.506;11.876;2024-01-30T03:28:40;5.30;81.00
14585;DHT22;7379;51.506;11.876;2024-01-30T03:31:08;5.20;80.90
14585;DHT22;7379;51.506;11.876;2024-01-30T03:33:36;5.20;80.90
14585;DHT22;7379;51.506;11.876;2024-01-30T03:36:04;5.20;80.90
14585;DHT22;7379;51.506;11.876;2024-01-30T03:38:31;5.20;80.90
14585;DHT22;7379;51.506;11.876;2024-01-30T03:40:59;5.20;80.90
14585;DHT22;7379;51.506;11.876;2024-01-30T03:43:25;5.20;80.90
14585;DHT22;7379;51.506;11.876;2024-01-30T03:45:52;5.20;80.90
14585;DHT22;7379;51.506;11.876;2024-01-30T03:48:21;5.20;80.90
14585;DHT22;7379;51.506;11.876;2024-01-30T03:50:48;5.20;80.90
14585;DHT22;7379;51.506;11.876;2024-01-30T03:53:14;5.20;80.90
14585;DHT22;7379;51.506;11.876;2024-01-30T03:55:41;5.20;80.90
14585;DHT22;7379;51.506;11.876;2024-01-30T03:58:08;5.20;80.90
14585;DHT22;7379;51.506;11.876;2024-01-30T04:00:35;5.20;80.90
14585;DHT22;7379;51.506;11.876;2024-01-30T04:03:01;5.20;80.90
14585;DHT22;7379;51.506;11.876;2024-01-30T04:05:30;5.20;80.90
14585;DHT22;7379;51.506;11.876;2024-01-30T04:07:56;5.20;81.00
14585;DHT22;7379;51.506;11.876;2024-01-30T04:10:23;5.20;81.00
14585;DHT22;7379;51.506;11.876;2024-01-30T04:12:51;5.20;80.90
14585;DHT22;7379;51.506;11.876;2024-01-30T04:15:19;5.20;80.90
14585;DHT22;7379;51.506;11.876;2024-01-30T04:17:46;5.20;80.90
14585;DHT22;7379;51.506;11.876;2024-01-30T04:20:14;5.20;80.90
14585;DHT22;7379;51.506;11.876;2024-01-30T04:22:43;5.20;80.90
14585;DHT22;7379;51.506;11.876;2024-01-30T04:25:10;5.20;80.90
14585;DHT22;7379;51.506;11.876;2024-01-30T04:27:36;5.20;81.00
14585;DHT22;7379;51.506;11.876;2024-01-30T04:30:04;5.20;81.00
14585;DHT22;7379;51.506;11.876;2024-01-30T04:32:32;5.20;81.00
14585;DHT22;7379;51.506;11.876;2024-01-30T04:34:59;5.10;80.90
14585;DHT22;7379;51.506;11.876;2024-01-30T04:37:25;5.10;81.00
14585;DHT22;7379;51.506;11.876;2024-01-30T04:39:54;5.10;80.90
14585;DHT22;7379;51.506;11.876;2024-01-30T04:42:21;5.10;80.90
14585;DHT22;7379;51.506;11.876;2024-01-30T04:44:47;5.20;81.00
14585;DHT22;7379;51.506;11.876;2024-01-30T04:47:14;5.10;80.90
14585;DHT22;7379;51.506;11.876;2024-01-30T04:49:41;5.10;80.90
14585;DHT22;7379;51.506;11.876;2024-01-30T04:52:09;5.10;80.90
14585;DHT22;7379;51.506;11.876;2024-01-30T04:54:36;5.10;81.70
14585;DHT22;7379;51.506;11.876;2024-01-30T04:57:04;5.10;81.00
14585;DHT22;7379;51.506;11.876;2024-01-30T04:59:34;5.10;81.00
14585;DHT22;7379;51.506;11.876;2024-01-30T05:02:01;5.10;81.00
14585;DHT22;7379;51.506;11.876;2024-01-30T05:04:28;5.10;81.00
14585;DHT22;7379;51.506;11.876;2024-01-30T05:06:55;5.10;81.00
14585;DHT22;7379;51.506;11.876;2024-01-30T05:09:21;5.10;81.00
14585;DHT22;7379;51.506;11.876;2024-01-30T05:11:48;5.10;81.00
14585;DHT22;7379;51.506;11.876;2024-01-30T05:14:16;5.10;81.00
14585;DHT22;7379;51.506;11.876;2024-01-30T05:16:43;5.10;81.10
14585;DHT22;7379;51.506;11.876;2024-01-30T05:19:12;5.10;81.10
14585;DHT22;7379;51.506;11.876;2024-01-30T05:21:39;5.10;81.10
14585;DHT22;7379;51.506;11.876;2024-01-30T05:24:06;5.10;81.10
14585;DHT22;7379;51.506;11.876;2024-01-30T05:26:35;5.10;81.10
14585;DHT22;7379;51.506;11.876;2024-01-30T05:29:02;5.10;81.10
14585;DHT22;7379;51.506;11.876;2024-01-30T05:31:30;5.10;81.10
14585;DHT22;7379;51.506;11.876;2024-01-30T05:33:57;5.10;81.20
14585;DHT22;7379;51.506;11.876;2024-01-30T05:36:23;5.10;81.20
14585;DHT22;7379;51.506;11.876;2024-01-30T05:38:50;5.00;81.10
14585;DHT22;7379;51.506;11.876;2024-01-30T05:41:17;5.00;81.10
14585;DHT22;7379;51.506;11.876;2024-01-30T05:43:44;5.00;81.10
14585;DHT22;7379;51.506;11.876;2024-01-30T05:46:10;5.00;81.10
14585;DHT22;7379;51.506;11.876;2024-01-30T05:48:38;5.00;81.10
14585;DHT22;7379;51.506;11.876;2024-01-30T05:51:07;5.00;81.10
14585;DHT22;7379;51.506;11.876;2024-01-30T05:53:33;5.00;81.10
14585;DHT22;7379;51.506;11.876;2024-01-30T05:56:01;5.00;81.10
14585;DHT22;7379;51.506;11.876;2024-01-30T05:58:28;5.00;81.20
14585;DHT22;7379;51.506;11.876;2024-01-30T06:00:56;5.00;81.20
14585;DHT22;7379;51.506;11.876;2024-01-30T06:03:23;5.00;81.20
14585;DHT22;7379;51.506;11.876;2024-01-30T06:05:51;5.00;81.20
14585;DHT22;7379;51.506;11.876;2024-01-30T06:08:18;5.00;81.30
14585;DHT22;7379;51.506;11.876;2024-01-30T06:10:44;5.00;81.30
14585;DHT22;7379;51.506;11.876;2024-01-30T06:13:13;5.00;81.30
14585;DHT22;7379;51.506;11.876;2024-01-30T06:15:39;5.00;81.30
14585;DHT22;7379;51.506;11.876;2024-01-30T06:18:06;5.00;81.30
14585;DHT22;7379;51.506;11.876;2024-01-30T06:20:33;5.00;81.30
14585;DHT22;7379;51.506;11.876;2024-01-30T06:23:01;4.90;81.20
14585;DHT22;7379;51.506;11.876;2024-01-30T06:25:28;4.90;81.30
14585;DHT22;7379;51.506;11.876;2024-01-30T06:27:54;4.90;81.20
14585;DHT22;7379;51.506;11.876;2024-01-30T06:30:21;4.90;81.30
14585;DHT22;7379;51.506;11.876;2024-01-30T06:32:48;4.90;81.30
14585;DHT22;7379;51.506;11.876;2024-01-30T06:35:15;4.90;81.30
14585;DHT22;7379;51.506;11.876;2024-01-30T06:37:43;4.90;81.30
14585;DHT22;7379;51.506;11.876;2024-01-30T06:40:12;4.90;81.30
14585;DHT22;7379;51.506;11.876;2024-01-30T06:42:38;4.90;81.30
14585;DHT22;7379;51.506;11.876;2024-01-30T06:45:06;4.90;81.30
14585;DHT22;7379;51.506;11.876;2024-01-30T06:47:33;4.90;81.30
14585;DHT22;7379;51.506;11.876;2024-01-30T06:50:00;4.90;81.30
14585;DHT22;7379;51.506;11.876;2024-01-30T06:52:27;4.90;81.30
14585;DHT22;7379;51.506;11.876;2024-01-30T06:54:54;4.90;81.20
14585;DHT22;7379;51.506;11.876;2024-01-30T06:57:22;4.90;81.00
14585;DHT22;7379;51.506;11.876;2024-01-30T06:59:49;4.90;80.80
14585;DHT22;7379;51.506;11.876;2024-01-30T07:02:15;4.80;80.60
14585;DHT22;7379;51.506;11.876;2024-01-30T07:04:42;4.80;80.70
14585;DHT22;7379;51.506;11.876;2024-01-30T07:07:09;4.70;80.90
14585;DHT22;7379;51.506;11.876;2024-01-30T07:09:38;4.80;89.00
14585;DHT22;7379;51.506;11.876;2024-01-30T09:30:41;4.80;72.50
14585;DHT22;7379;51.506;11.876;2024-01-30T09:33:08;4.90;72.50
14585;DHT22;7379;51.506;11.876;2024-01-30T09:35:35;4.90;72.80
14585;DHT22;7379;51.506;11.876;2024-01-30T09:38:02;4.90;72.70
14585;DHT22;7379;51.506;11.876;2024-01-30T09:40:29;5.00;72.80
14585;DHT22;7379;51.506;11.876;2024-01-30T09:42:56;5.00;73.00
14585;DHT22;7379;51.506;11.876;2024-01-30T09:45:25;5.10;72.60
14585;DHT22;7379;51.506;11.876;2024-01-30T09:47:53;5.10;72.50
14585;DHT22;7379;51.506;11.876;2024-01-30T09:50:20;5.20;72.90
14585;DHT22;7379;51.506;11.876;2024-01-30T09:52:48;5.20;73.00
14585;DHT22;7379;51.506;11.876;2024-01-30T09:55:15;5.30;73.10
14585;DHT22;7379;51.506;11.876;2024-01-30T09:57:42;5.40;72.90
14585;DHT22;7379;51.506;11.876;2024-01-30T10:00:10;5.50;72.40
14585;DHT22;7379;51.506;11.876;2024-01-30T10:02:38;5.50;71.90
14585;DHT22;7379;51.506;11.876;2024-01-30T10:05:08;5.60;72.20
14585;DHT22;7379;51.506;11.876;2024-01-30T10:07:35;5.60;72.30
14585;DHT22;7379;51.506;11.876;2024-01-30T10:10:02;5.70;72.40
14585;DHT22;7379;51.506;11.876;2024-01-30T10:12:29;5.70;72.50
14585;DHT22;7379;51.506;11.876;2024-01-30T10:14:56;5.80;72.30
14585;DHT22;7379;51.506;11.876;2024-01-30T10:17:25;5.90;72.50
14585;DHT22;7379;51.506;11.876;2024-01-30T10:19:52;6.00;73.30
14585;DHT22;7379;51.506;11.876;2024-01-30T10:22:20;6.00;72.20
14585;DHT22;7379;51.506;11.876;2024-01-30T10:24:48;6.00;72.10
14585;DHT22;7379;51.506;11.876;2024-01-30T10:27:15;6.00;72.00
14585;DHT22;7379;51.506;11.876;2024-01-30T10:29:41;6.00;72.10
14585;DHT22;7379;51.506;11.876;2024-01-30T10:32:08;6.00;72.20
14585;DHT22;7379;51.506;11.876;2024-01-30T10:34:35;6.00;71.90
14585;DHT22;7379;51.506;11.876;2024-01-30T10:37:07;6.00;71.80
14585;DHT22;7379;51.506;11.876;2024-01-30T10:39:39;6.00;71.90
14585;DHT22;7379;51.506;11.876;2024-01-30T10:42:09;6.00;71.90
14585;DHT22;7379;51.506;11.876;2024-01-30T10:44:44;5.90;71.90
14585;DHT22;7379;51.506;11.876;2024-01-30T10:47:20;6.00;72.20
14585;DHT22;7379;51.506;11.876;2024-01-30T10:49:48;6.00;72.30
14585;DHT22;7379;51.506;11.876;2024-01-30T10:52:16;6.00;72.40
14585;DHT22;7379;51.506;11.876;2024-01-30T10:54:45;6.00;72.40
14585;DHT22;7379;51.506;11.876;2024-01-30T10:57:12;6.00;72.20
14585;DHT22;7379;51.506;11.876;2024-01-30T10:59:40;6.00;72.40
14585;DHT22;7379;51.506;11.876;2024-01-30T11:02:07;6.10;72.70
14585;DHT22;7379;51.506;11.876;2024-01-30T11:04:38;6.10;72.50
14585;DHT22;7379;51.506;11.876;2024-01-30T11:07:14;6.10;72.50
14585;DHT22;7379;51.506;11.876;2024-01-30T11:09:50;6.10;72.50
14585;DHT22;7379;51.506;11.876;2024-01-30T11:12:18;6.20;72.50
14585;DHT22;7379;51.506;11.876;2024-01-30T11:14:47;6.20;72.30
14585;DHT22;7379;51.506;11.876;2024-01-30T11:17:14;6.20;72.90
14585;DHT22;7379;51.506;11.876;2024-01-30T11:19:41;6.20;73.20
14585;DHT22;7379;51.506;11.876;2024-01-30T11:22:08;6.30;73.40
14585;DHT22;7379;51.506;11.876;2024-01-30T11:24:39;6.40;73.10
14585;DHT22;7379;51.506;11.876;2024-01-30T11:27:09;6.40;73.10
14585;DHT22;7379;51.506;11.876;2024-01-30T11:29:36;6.40;73.10
14585;DHT22;7379;51.506;11.876;2024-01-30T11:32:04;6.40;73.00
14585;DHT22;7379;51.506;11.876;2024-01-30T11:34:32;6.50;73.00
14585;DHT22;7379;51.506;11.876;2024-01-30T11:37:03;6.50;73.00
14585;DHT22;7379;51.506;11.876;2024-01-30T11:39:32;6.50;72.90
14585;DHT22;7379;51.506;11.876;2024-01-30T11:41:59;6.50;73.20
14585;DHT22;7379;51.506;11.876;2024-01-30T11:44:27;6.60;73.00
14585;DHT22;7379;51.506;11.876;2024-01-30T11:46:54;6.60;73.00
14585;DHT22;7379;51.506;11.876;2024-01-30T11:49:21;6.70;73.10
14585;DHT22;7379;51.506;11.876;2024-01-30T11:51:49;6.70;73.20
14585;DHT22;7379;51.506;11.876;2024-01-30T11:54:16;6.70;72.90
14585;DHT22;7379;51.506;11.876;2024-01-30T11:56:43;6.80;73.00
14585;DHT22;7379;51.506;11.876;2024-01-30T11:59:10;6.80;73.20
14585;DHT22;7379;51.506;11.876;2024-01-30T12:01:38;6.80;73.10
14585;DHT22;7379;51.506;11.876;2024-01-30T12:04:04;6.80;73.30
14585;DHT22;7379;51.506;11.876;2024-01-30T12:06:34;6.90;73.40
14585;DHT22;7379;51.506;11.876;2024-01-30T12:09:01;6.90;73.40
14585;DHT22;7379;51.506;11.876;2024-01-30T12:11:29;6.90;73.10
14585;DHT22;7379;51.506;11.876;2024-01-30T12:13:56;7.00;72.90
14585;DHT22;7379;51.506;11.876;2024-01-30T12:16:23;7.00;72.70
14585;DHT22;7379;51.506;11.876;2024-01-30T12:18:59;7.00;72.40
14585;DHT22;7379;51.506;11.876;2024-01-30T12:21:27;7.10;72.40
14585;DHT22;7379;51.506;11.876;2024-01-30T12:23:54;7.10;72.30
14585;DHT22;7379;51.506;11.876;2024-01-30T12:26:21;7.10;72.20
14585;DHT22;7379;51.506;11.876;2024-01-30T12:28:48;7.00;72.10
14585;DHT22;7379;51.506;11.876;2024-01-30T12:31:15;7.00;72.90
14585;DHT22;7379;51.506;11.876;2024-01-30T12:33:42;7.00;72.80
14585;DHT22;7379;51.506;11.876;2024-01-30T12:36:11;7.10;72.80
14585;DHT22;7379;51.506;11.876;2024-01-30T12:38:38;7.10;73.00
14585;DHT22;7379;51.506;11.876;2024-01-30T12:41:07;7.10;72.80
14585;DHT22;7379;51.506;11.876;2024-01-30T12:43:34;7.20;72.90
14585;DHT22;7379;51.506;11.876;2024-01-30T12:46:01;7.20;73.00
14585;DHT22;7379;51.506;11.876;2024-01-30T12:48:28;7.20;72.80
14585;DHT22;7379;51.506;11.876;2024-01-30T12:50:55;7.30;72.80
14585;DHT22;7379;51.506;11.876;2024-01-30T12:53:23;7.40;72.60
14585;DHT22;7379;51.506;11.876;2024-01-30T12:55:50;7.40;72.70
14585;DHT22;7379;51.506;11.876;2024-01-30T12:58:17;7.40;72.40
14585;DHT22;7379;51.506;11.876;2024-01-30T13:00:44;7.50;72.80
14585;DHT22;7379;51.506;11.876;2024-01-30T13:03:10;7.50;72.70
14585;DHT22;7379;51.506;11.876;2024-01-30T13:05:37;7.50;73.10
14585;DHT22;7379;51.506;11.876;2024-01-30T13:08:05;7.50;73.10
14585;DHT22;7379;51.506;11.876;2024-01-30T13:10:33;7.50;73.00
14585;DHT22;7379;51.506;11.876;2024-01-30T13:13:00;7.50;72.80
14585;DHT22;7379;51.506;11.876;2024-01-30T13:15:26;7.50;72.60
14585;DHT22;7379;51.506;11.876;2024-01-30T13:17:53;7.50;73.10
14585;DHT22;7379;51.506;11.876;2024-01-30T13:20:20;7.50;73.00
14585;DHT22;7379;51.506;11.876;2024-01-30T13:22:47;7.50;73.40
14585;DHT22;7379;51.506;11.876;2024-01-30T13:25:15;7.50;73.50
14585;DHT22;7379;51.506;11.876;2024-01-30T13:27:43;7.50;73.50
14585;DHT22;7379;51.506;11.876;2024-01-30T13:30:10;7.50;73.90
14585;DHT22;7379;51.506;11.876;2024-01-30T13:32:37;7.60;73.40
14585;DHT22;7379;51.506;11.876;2024-01-30T13:35:04;7.60;73.80
14585;DHT22;7379;51.506;11.876;2024-01-30T13:37:31;7.60;73.50
14585;DHT22;7379;51.506;11.876;2024-01-30T13:39:58;7.60;73.70
14585;DHT22;7379;51.506;11.876;2024-01-30T13:42:24;7.60;73.90
14585;DHT22;7379;51.506;11.876;2024-01-30T13:44:52;7.60;73.90
14585;DHT22;7379;51.506;11.876;2024-01-30T13:47:19;7.60;74.10
14585;DHT22;7379;51.506;11.876;2024-01-30T13:49:47;7.60;73.70
14585;DHT22;7379;51.506;11.876;2024-01-30T13:52:13;7.70;73.90
14585;DHT22;7379;51.506;11.876;2024-01-30T13:54:40;7.70;74.20
14585;DHT22;7379;51.506;11.876;2024-01-30T13:57:07;7.70;73.80
14585;DHT22;7379;51.506;11.876;2024-01-30T13:59:34;7.70;74.20
14585;DHT22;7379;51.506;11.876;2024-01-30T14:02:02;7.70;74.30
14585;DHT22;7379;51.506;11.876;2024-01-30T14:04:29;7.70;73.90
14585;DHT22;7379;51.506;11.876;2024-01-30T14:06:55;7.70;74.10
14585;DHT22;7379;51.506;11.876;2024-01-30T14:09:22;7.70;74.20
14585;DHT22;7379;51.506;11.876;2024-01-30T14:11:49;7.70;74.10
14585;DHT22;7379;51.506;11.876;2024-01-30T14:14:16;7.70;74.90
14585;DHT22;7379;51.506;11.876;2024-01-30T14:16:42;7.70;74.00
14585;DHT22;7379;51.506;11.876;2024-01-30T14:19:10;7.70;74.00
14585;DHT22;7379;51.506;11.876;2024-01-30T14:21:37;7.70;74.20
14585;DHT22;7379;51.506;11.876;2024-01-30T14:24:04;7.70;73.80
14585;DHT22;7379;51.506;11.876;2024-01-30T14:26:31;7.70;74.10
14585;DHT22;7379;51.506;11.876;2024-01-30T14:28:58;7.70;73.90
14585;DHT22;7379;51.506;11.876;2024-01-30T14:31:25;7.70;73.70
14585;DHT22;7379;51.506;11.876;2024-01-30T14:33:51;7.70;73.80
14585;DHT22;7379;51.506;11.876;2024-01-30T14:36:19;7.70;73.70
14585;DHT22;7379;51.506;11.876;2024-01-30T14:38:46;7.60;73.90
14585;DHT22;7379;51.506;11.876;2024-01-30T14:41:13;7.60;73.80
14585;DHT22;7379;51.506;11.876;2024-01-30T14:43:40;7.50;73.90
14585;DHT22;7379;51.506;11.876;2024-01-30T14:46:06;7.50;74.40
14585;DHT22;7379;51.506;11.876;2024-01-30T14:48:33;7.50;74.40
14585;DHT22;7379;51.506;11.876;2024-01-30T14:51:00;7.50;74.60
14585;DHT22;7379;51.506;11.876;2024-01-30T14:53:28;7.60;74.50
14585;DHT22;7379;51.506;11.876;2024-01-30T14:55:55;7.60;74.30
14585;DHT22;7379;51.506;11.876;2024-01-30T14:58:21;7.60;74.40
14585;DHT22;7379;51.506;11.876;2024-01-30T15:00:49;7.60;74.20
14585;DHT22;7379;51.506;11.876;2024-01-30T15:03:15;7.60;74.20
14585;DHT22;7379;51.506;11.876;2024-01-30T15:05:42;7.60;74.10
14585;DHT22;7379;51.506;11.876;2024-01-30T15:08:09;7.60;74.20
14585;DHT22;7379;51.506;11.876;2024-01-30T15:10:37;7.60;74.10
14585;DHT22;7379;51.506;11.876;2024-01-30T15:13:04;7.60;74.20
14585;DHT22;7379;51.506;11.876;2024-01-30T15:15:31;7.60;74.10
14585;DHT22;7379;51.506;11.876;2024-01-30T15:17:57;7.60;74.10
14585;DHT22;7379;51.506;11.876;2024-01-30T15:20:24;7.60;73.90
14585;DHT22;7379;51.506;11.876;2024-01-30T15:22:51;7.60;73.90
14585;DHT22;7379;51.506;11.876;2024-01-30T15:25:17;7.50;73.80
14585;DHT22;7379;51.506;11.876;2024-01-30T15:27:45;7.50;74.00
14585;DHT22;7379;51.506;11.876;2024-01-30T15:30:13;7.50;74.20
14585;DHT22;7379;51.506;11.876;2024-01-30T15:32:40;7.50;74.20
14585;DHT22;7379;51.506;11.876;2024-01-30T15:35:07;7.50;74.40
14585;DHT22;7379;51.506;11.876;2024-01-30T15:37:34;7.50;74.50
14585;DHT22;7379;51.506;11.876;2024-01-30T15:40:00;7.50;74.70
14585;DHT22;7379;51.506;11.876;2024-01-30T15:42:28;7.40;74.70
14585;DHT22;7379;51.506;11.876;2024-01-30T15:44:56;7.40;74.90
14585;DHT22;7379;51.506;11.876;2024-01-30T15:47:24;7.40;74.80
14585;DHT22;7379;51.506;11.876;2024-01-30T15:49:51;7.40;74.60
14585;DHT22;7379;51.506;11.876;2024-01-30T15:52:18;7.40;74.60
14585;DHT22;7379;51.506;11.876;2024-01-30T15:54:46;7.40;74.70
14585;DHT22;7379;51.506;11.876;2024-01-30T15:57:13;7.40;74.70
14585;DHT22;7379;51.506;11.876;2024-01-30T15:59:42;7.40;74.60
14585;DHT22;7379;51.506;11.876;2024-01-30T16:02:10;7.40;74.70
14585;DHT22;7379;51.506;11.876;2024-01-30T16:04:36;7.40;74.70
14585;DHT22;7379;51.506;11.876;2024-01-30T16:07:03;7.40;74.80
14585;DHT22;7379;51.506;11.876;2024-01-30T16:09:30;7.40;74.90
14585;DHT22;7379;51.506;11.876;2024-01-30T16:11:57;7.30;74.70
14585;DHT22;7379;51.506;11.876;2024-01-30T16:14:24;7.40;74.80
14585;DHT22;7379;51.506;11.876;2024-01-30T16:16:50;7.30;74.90
14585;DHT22;7379;51.506;11.876;2024-01-30T16:19:18;7.40;75.00
14585;DHT22;7379;51.506;11.876;2024-01-30T16:21:45;7.30;74.80
14585;DHT22;7379;51.506;11.876;2024-01-30T16:24:11;7.30;75.00
14585;DHT22;7379;51.506;11.876;2024-01-30T16:26:38;7.30;75.00
14585;DHT22;7379;51.506;11.876;2024-01-30T16:29:06;7.30;74.90
14585;DHT22;7379;51.506;11.876;2024-01-30T16:31:32;7.30;75.00
14585;DHT22;7379;51.506;11.876;2024-01-30T16:34:06;7.30;75.20
14585;DHT22;7379;51.506;11.876;2024-01-30T16:36:34;7.30;75.30
14585;DHT22;7379;51.506;11.876;2024-01-30T16:39:01;7.30;75.40
14585;DHT22;7379;51.506;11.876;2024-01-30T16:41:28;7.20;75.50
14585;DHT22;7379;51.506;11.876;2024-01-30T16:43:55;7.20;75.50
14585;DHT22;7379;51.506;11.876;2024-01-30T16:46:22;7.20;75.60
14585;DHT22;7379;51.506;11.876;2024-01-30T16:48:49;7.20;75.60
14585;DHT22;7379;51.506;11.876;2024-01-30T16:51:16;7.20;75.70
14585;DHT22;7379;51.506;11.876;2024-01-30T16:53:44;7.30;75.70
14585;DHT22;7379;51.506;11.876;2024-01-30T16:56:13;7.30;75.70
14585;DHT22;7379;51.506;11.876;2024-01-30T16:58:40;7.30;75.60
14585;DHT22;7379;51.506;11.876;2024-01-30T17:01:06;7.30;75.70
14585;DHT22;7379;51.506;11.876;2024-01-30T17:03:33;7.30;75.60
14585;DHT22;7379;51.506;11.876;2024-01-30T17:06:00;7.30;76.00
14585;DHT22;7379;51.506;11.876;2024-01-30T17:08:31;7.30;75.90
14585;DHT22;7379;51.506;11.876;2024-01-30T17:10:59;7.20;75.90
14585;DHT22;7379;51.506;11.876;2024-01-30T17:13:26;7.20;75.80
14585;DHT22;7379;51.506;11.876;2024-01-30T17:15:52;7.20;75.90
14585;DHT22;7379;51.506;11.876;2024-01-30T17:18:19;7.30;76.10
14585;DHT22;7379;51.506;11.876;2024-01-30T17:20:46;7.30;76.00
14585;DHT22;7379;51.506;11.876;2024-01-30T17:23:13;7.30;76.00
14585;DHT22;7379;51.506;11.876;2024-01-30T17:25:39;7.30;75.90
14585;DHT22;7379;51.506;11.876;2024-01-30T17:28:07;7.30;76.20
14585;DHT22;7379;51.506;11.876;2024-01-30T17:30:35;7.30;76.70
14585;DHT22;7379;51.506;11.876;2024-01-30T17:33:02;7.40;76.90
14585;DHT22;7379;51.506;11.876;2024-01-30T17:35:29;7.40;77.00
14585;DHT22;7379;51.506;11.876;2024-01-30T17:37:56;7.40;76.70
14585;DHT22;7379;51.506;11.876;2024-01-30T17:40:22;7.40;76.50
14585;DHT22;7379;51.506;11.876;2024-01-30T17:42:49;7.40;76.40
14585;DHT22;7379;51.506;11.876;2024-01-30T17:45:17;7.40;76.30
14585;DHT22;7379;51.506;11.876;2024-01-30T17:47:44;7.40;76.30
14585;DHT22;7379;51.506;11.876;2024-01-30T17:50:11;7.30;76.30
14585;DHT22;7379;51.506;11.876;2024-01-30T17:52:37;7.30;76.20
14585;DHT22;7379;51.506;11.876;2024-01-30T17:55:05;7.30;76.10
14585;DHT22;7379;51.506;11.876;2024-01-30T17:57:32;7.30;76.20
14585;DHT22;7379;51.506;11.876;2024-01-30T17:59:58;7.30;76.20
14585;DHT22;7379;51.506;11.876;2024-01-30T18:02:26;7.30;76.10
14585;DHT22;7379;51.506;11.876;2024-01-30T18:04:53;7.30;76.20